Time;durP1;ratioP1;P1;durP2;ratioP2;P2;SDS_P1;SDS_P2;PMS_P1;PMS_P2;Temp;Humidity;BMP_temperature;BMP_pressure;BME280_temperature;BME280_humidity;BME280_pressure;Samples;Min_cycle;Max_cycle;Signal;HPM_P1;HPM_P2
2023/05/23 00:01:53;;;;;;;11.20;6.72;;;;;;;16.79;70.96;101487.66;7395273;19;20022;-54
2023/05/23 00:04:21;;;;;;;10.60;7.10;;;;;;;16.82;70.72;101483.81;7392285;19;20025;-55
2023/05/23 00:06:49;;;;;;;12.38;7.22;;;;;;;16.75;70.77;101480.88;7394454;19;20124;-56
2023/05/23 00:09:16;;;;;;;10.63;7.32;;;;;;;16.74;70.94;101481.00;7390814;19;20551;-56
2023/05/23 00:11:44;;;;;;;10.30;7.40;;;;;;;16.75;70.84;101480.00;7394506;19;20045;-55
2023/05/23 00:14:13;;;;;;;10.60;6.55;;;;;;;16.74;70.79;101478.31;7394366;19;20022;-57
2023/05/23 00:16:42;;;;;;;9.07;5.88;;;;;;;16.77;70.51;101470.88;7394248;19;20032;-57
2023/05/23 00:19:13;;;;;;;9.45;6.47;;;;;;;16.71;70.39;101476.75;7391364;19;20023;-56
2023/05/23 00:21:42;;;;;;;10.65;6.28;;;;;;;16.66;71.15;101472.75;7392809;19;20125;-56
2023/05/23 00:24:09;;;;;;;9.52;6.30;;;;;;;16.65;71.04;101477.28;7391740;19;20030;-56
2023/05/23 00:26:37;;;;;;;10.82;6.90;;;;;;;16.69;71.22;101473.34;7393012;19;20022;-56
2023/05/23 00:29:04;;;;;;;11.60;7.50;;;;;;;16.67;70.90;101469.94;7392421;19;20015;-54
2023/05/23 00:31:32;;;;;;;12.95;7.07;;;;;;;16.65;71.01;101474.59;7393702;19;20025;-54
2023/05/23 00:33:59;;;;;;;11.93;7.30;;;;;;;16.67;70.84;101471.78;7393933;19;20011;-55
2023/05/23 00:36:26;;;;;;;11.88;7.00;;;;;;;16.76;70.76;101471.00;7393545;19;20018;-53
2023/05/23 00:38:54;;;;;;;12.00;8.20;;;;;;;16.71;70.83;101468.72;7393085;19;20409;-54
2023/05/23 00:41:21;;;;;;;12.90;8.43;;;;;;;16.76;70.61;101466.50;7393369;19;20038;-54
2023/05/23 00:43:48;;;;;;;12.48;8.27;;;;;;;16.69;70.69;101462.66;7390075;19;20064;-53
2023/05/23 00:46:16;;;;;;;12.73;8.05;;;;;;;16.69;70.88;101468.00;7392532;19;20016;-53
2023/05/23 00:48:43;;;;;;;10.00;6.35;;;;;;;16.66;70.55;101467.41;7390887;19;20022;-54
2023/05/23 00:51:10;;;;;;;11.05;6.55;;;;;;;16.62;70.59;101456.13;7393313;19;20011;-54
2023/05/23 00:53:37;;;;;;;10.38;6.05;;;;;;;16.66;70.31;101462.06;7392952;19;20517;-55
2023/05/23 00:56:05;;;;;;;10.85;6.00;;;;;;;16.75;70.02;101456.81;7392531;19;20023;-54
2023/05/23 00:58:32;;;;;;;10.50;6.00;;;;;;;16.74;69.92;101452.41;7392242;19;20021;-55
2023/05/23 01:00:59;;;;;;;10.63;5.90;;;;;;;16.72;70.26;101465.06;7391490;19;20022;-54
2023/05/23 01:03:27;;;;;;;12.65;7.63;;;;;;;16.65;70.14;101450.53;7391421;19;20010;-54
2023/05/23 01:05:55;;;;;;;14.50;8.35;;;;;;;16.70;70.26;101453.63;7391682;19;20077;-54
2023/05/23 01:08:22;;;;;;;11.95;7.57;;;;;;;16.75;70.31;101450.56;7392020;19;20019;-54
2023/05/23 01:10:50;;;;;;;12.05;6.63;;;;;;;16.78;70.21;101444.97;7390749;19;20059;-52
2023/05/23 01:13:41;;;;;;;12.63;7.20;;;;;;;16.78;70.49;101443.13;7392753;19;20379;-53
2023/05/23 01:16:17;;;;;;;11.52;7.25;;;;;;;16.66;71.16;101438.84;7391182;19;20018;-54
2023/05/23 01:18:58;;;;;;;11.27;6.90;;;;;;;16.71;71.13;101433.06;7391854;19;20018;-54
2023/05/23 01:21:26;;;;;;;9.10;5.53;;;;;;;16.69;70.97;101435.06;7392843;19;20098;-54
2023/05/23 01:24:02;;;;;;;10.18;6.78;;;;;;;16.71;71.00;101430.41;7390707;19;20483;-55
2023/05/23 01:26:53;;;;;;;10.88;6.25;;;;;;;16.69;71.25;101427.88;7391989;19;20042;-55
2023/05/23 01:29:30;;;;;;;11.23;6.20;;;;;;;16.60;71.67;101419.81;7390242;19;20022;-55
2023/05/23 01:32:00;;;;;;;8.73;5.93;;;;;;;16.57;71.82;101432.47;7392232;19;20025;-54
2023/05/23 01:34:30;;;;;;;10.10;6.30;;;;;;;16.51;71.84;101432.16;7390022;19;20525;-56
2023/05/23 01:36:57;;;;;;;12.10;6.70;;;;;;;16.51;72.11;101424.16;7391055;19;20054;-54
2023/05/23 01:39:24;;;;;;;10.68;6.80;;;;;;;16.52;72.09;101429.38;7389854;19;20067;-54
2023/05/23 01:41:52;;;;;;;12.00;7.53;;;;;;;16.60;71.68;101426.03;7391288;19;20042;-55
2023/05/23 01:44:20;;;;;;;11.13;6.40;;;;;;;16.63;71.92;101423.06;7390768;19;20022;-55
2023/05/23 01:46:47;;;;;;;9.55;6.25;;;;;;;16.65;72.17;101422.94;7389021;19;20360;-54
2023/05/23 01:49:16;;;;;;;11.20;6.95;;;;;;;16.67;71.89;101427.16;7390385;19;20018;-55
2023/05/23 01:51:44;;;;;;;9.25;6.35;;;;;;;16.68;71.84;101423.50;7390859;19;20019;-55
2023/05/23 01:54:15;;;;;;;11.27;6.97;;;;;;;16.66;71.77;101428.13;7389156;19;20034;-55
2023/05/23 01:56:43;;;;;;;10.63;7.07;;;;;;;16.70;71.65;101428.72;7391114;19;20015;-56
2023/05/23 01:59:11;;;;;;;10.02;7.63;;;;;;;16.72;71.81;101430.28;7389993;19;20031;-56
2023/05/23 02:01:38;;;;;;;11.35;8.05;;;;;;;16.71;71.62;101423.25;7389475;19;20011;-53
2023/05/23 02:04:05;;;;;;;11.10;8.07;;;;;;;16.69;71.90;101427.03;7390258;19;20035;-53
2023/05/23 02:06:33;;;;;;;11.48;7.70;;;;;;;16.66;71.81;101430.81;7388552;19;20017;-54
2023/05/23 02:09:00;;;;;;;12.35;8.23;;;;;;;16.57;72.10;101440.50;7389552;19;20516;-54
2023/05/23 02:11:27;;;;;;;11.85;7.90;;;;;;;16.64;71.83;101446.16;7390891;19;20014;-52
2023/05/23 02:13:54;;;;;;;12.20;7.93;;;;;;;16.63;71.96;101439.09;7389377;19;20018;-55
2023/05/23 02:16:22;;;;;;;14.25;9.52;;;;;;;16.53;72.17;101446.25;7388111;19;20015;-54
2023/05/23 02:18:51;;;;;;;14.35;9.20;;;;;;;16.60;72.06;101442.06;7389222;19;20025;-52
2023/05/23 02:21:18;;;;;;;13.30;9.65;;;;;;;16.58;72.19;101444.03;7389013;19;20015;-52
2023/05/23 02:23:45;;;;;;;14.60;9.88;;;;;;;16.50;72.29;101444.69;7390164;19;20019;-55
2023/05/23 02:26:12;;;;;;;14.60;9.77;;;;;;;16.48;72.29;101443.13;7388195;19;20018;-54
2023/05/23 02:28:40;;;;;;;14.23;9.93;;;;;;;16.49;72.36;101435.00;7388320;19;20010;-52
2023/05/23 02:31:07;;;;;;;16.17;10.43;;;;;;;16.53;72.24;101446.25;7388398;19;20022;-53
2023/05/23 02:33:34;;;;;;;16.48;10.23;;;;;;;16.52;72.30;101441.88;7390216;19;20021;-54
2023/05/23 02:36:02;;;;;;;17.33;12.13;;;;;;;16.44;72.31;101442.56;7389078;19;20025;-54
2023/05/23 02:38:29;;;;;;;19.73;12.40;;;;;;;16.44;72.86;101442.56;7388941;19;20607;-52
2023/05/23 02:40:56;;;;;;;15.07;11.55;;;;;;;16.43;72.51;101440.03;7388531;19;20026;-54
2023/05/23 02:43:23;;;;;;;18.23;12.70;;;;;;;16.52;72.51;101440.06;7389636;19;20026;-55
2023/05/23 02:45:50;;;;;;;20.65;14.27;;;;;;;16.54;72.38;101434.56;7388949;19;20018;-55
2023/05/23 02:48:18;;;;;;;21.35;13.93;;;;;;;16.45;72.87;101432.72;7389564;19;20489;-53
2023/05/23 02:50:45;;;;;;;20.63;14.63;;;;;;;16.47;72.78;101428.06;7386674;19;20018;-54
2023/05/23 02:53:12;;;;;;;23.08;16.38;;;;;;;16.43;73.08;101429.31;7389765;19;20010;-54
2023/05/23 02:55:39;;;;;;;22.30;15.02;;;;;;;16.43;73.05;101426.66;7388796;19;20055;-55
2023/05/23 02:58:07;;;;;;;23.63;16.38;;;;;;;16.50;73.03;101427.81;7390181;19;20078;-56
2023/05/23 03:00:35;;;;;;;23.35;15.98;;;;;;;16.52;73.01;101434.72;7386749;19;20026;-55
2023/05/23 03:03:02;;;;;;;22.98;16.15;;;;;;;16.50;73.28;101433.16;7389090;19;20022;-54
2023/05/23 03:05:29;;;;;;;26.98;17.35;;;;;;;16.50;73.50;101425.97;7389285;19;20093;-55
2023/05/23 03:07:57;;;;;;;33.58;20.65;;;;;;;16.38;74.05;101431.56;7396054;19;20019;-54
2023/05/23 03:10:24;;;;;;;28.08;19.27;;;;;;;16.37;74.52;101427.19;7394037;19;20018;-55
2023/05/23 03:12:51;;;;;;;30.65;19.38;;;;;;;16.31;75.17;101426.75;7396445;19;20090;-55
2023/05/23 03:15:18;;;;;;;31.40;20.25;;;;;;;16.21;75.73;101422.31;7394104;19;20019;-56
2023/05/23 03:17:45;;;;;;;33.10;21.98;;;;;;;16.26;75.91;101426.31;7395865;19;20090;-56
2023/05/23 03:20:13;;;;;;;43.65;27.25;;;;;;;16.21;76.07;101433.84;7393877;19;20086;-55
2023/05/23 03:22:42;;;;;;;38.05;26.33;;;;;;;16.19;76.26;101429.66;7396549;19;20023;-56
2023/05/23 03:25:09;;;;;;;42.33;25.50;;;;;;;16.22;76.13;101434.72;7393491;19;20015;-56
2023/05/23 03:27:36;;;;;;;39.90;25.77;;;;;;;16.19;76.39;101433.16;7396075;19;20074;-57
2023/05/23 03:30:04;;;;;;;40.15;26.38;;;;;;;16.21;76.26;101433.84;7392319;19;20019;-55
2023/05/23 03:32:31;;;;;;;41.70;26.58;;;;;;;16.23;76.66;101431.91;7395604;19;20019;-55
2023/05/23 03:34:59;;;;;;;41.65;25.15;;;;;;;16.18;76.46;101439.50;7393970;19;20015;-55
2023/05/23 03:37:26;;;;;;;34.88;22.58;;;;;;;16.14;76.69;101432.72;7395671;19;20014;-54
2023/05/23 03:39:53;;;;;;;34.20;21.88;;;;;;;16.15;76.37;101445.09;7393275;19;20204;-54
2023/05/23 03:42:20;;;;;;;35.47;21.58;;;;;;;16.08;76.67;101439.44;7395200;19;20021;-55
2023/05/23 03:44:47;;;;;;;34.47;20.13;;;;;;;16.09;76.50;101438.44;7392151;19;20376;-55
2023/05/23 03:47:14;;;;;;;32.67;19.23;;;;;;;16.05;76.61;101442.34;7394998;19;20014;-55
2023/05/23 03:49:43;;;;;;;31.77;19.30;;;;;;;16.04;76.65;101445.19;7392951;19;20015;-55
2023/05/23 03:52:11;;;;;;;39.28;19.05;;;;;;;15.97;77.19;101447.50;7392701;19;20022;-53
2023/05/23 03:54:38;;;;;;;28.38;18.90;;;;;;;15.93;77.42;101445.25;7389827;19;20036;-54
2023/05/23 03:57:05;;;;;;;31.02;18.38;;;;;;;16.02;76.93;101447.13;7393166;19;20022;-55
2023/05/23 03:59:33;;;;;;;28.77;18.23;;;;;;;16.01;77.33;101445.44;7392319;19;20023;-55
2023/05/23 04:02:01;;;;;;;27.42;18.10;;;;;;;15.97;77.38;101444.00;7390466;19;20015;-54
2023/05/23 04:04:28;;;;;;;28.92;17.27;;;;;;;15.93;77.61;101456.78;7392381;19;20046;-55
2023/05/23 04:06:56;;;;;;;30.73;16.98;;;;;;;15.89;77.82;101458.00;7394624;19;20047;-54
2023/05/23 04:09:24;;;;;;;31.20;17.33;;;;;;;15.83;78.21;101459.41;7393112;19;20023;-54
2023/05/23 04:11:51;;;;;;;24.50;16.52;;;;;;;15.78;78.55;101466.09;7394498;19;20483;-55
2023/05/23 04:14:23;;;;;;;25.90;16.52;;;;;;;15.65;79.11;101460.94;7394330;19;20022;-53
2023/05/23 04:16:50;;;;;;;27.90;16.40;;;;;;;15.66;79.25;101467.97;7391936;19;20019;-53
2023/05/23 04:19:17;;;;;;;29.52;16.40;;;;;;;15.64;79.20;101464.53;7392558;19;20014;-53
2023/05/23 04:21:44;;;;;;;24.15;15.85;;;;;;;15.59;79.44;101472.09;7393559;19;20021;-53
2023/05/23 04:24:11;;;;;;;22.60;14.40;;;;;;;15.64;79.53;101475.22;7391969;19;20119;-55
2023/05/23 04:26:38;;;;;;;20.92;12.98;;;;;;;15.63;79.31;101478.84;7393613;19;20023;-53
2023/05/23 04:29:06;;;;;;;20.13;11.63;;;;;;;15.62;79.14;101477.19;7392723;19;20069;-55
2023/05/23 04:31:33;;;;;;;19.30;11.65;;;;;;;15.66;79.04;101480.47;7393997;19;20029;-53
2023/05/23 04:34:01;;;;;;;18.63;11.82;;;;;;;15.73;79.04;101479.81;7393901;19;20018;-53
2023/05/23 04:36:29;;;;;;;18.05;11.48;;;;;;;15.67;79.46;101488.34;7393023;19;20034;-53
2023/05/23 04:38:56;;;;;;;17.23;11.13;;;;;;;15.66;79.37;101483.16;7392630;19;20022;-53
2023/05/23 04:41:23;;;;;;;17.23;10.23;;;;;;;15.74;79.14;101489.53;7392762;19;20021;-53
2023/05/23 04:43:53;;;;;;;16.65;9.43;;;;;;;15.69;79.09;101489.06;7391812;19;20018;-50
2023/05/23 04:46:26;;;;;;;15.85;9.38;;;;;;;15.71;79.29;101492.44;7393001;19;20014;-56
2023/05/23 04:48:57;;;;;;;17.52;10.15;;;;;;;15.71;79.33;101483.59;7391742;19;20016;-55
2023/05/23 04:51:24;;;;;;;17.63;10.20;;;;;;;15.72;79.21;101487.94;7393480;19;20022;-56
2023/05/23 04:53:51;;;;;;;14.65;9.68;;;;;;;15.70;79.80;101498.78;7392989;19;20025;-56
2023/05/23 04:56:26;;;;;;;15.07;9.60;;;;;;;15.80;79.13;101501.53;7392762;19;20090;-56
2023/05/23 04:58:53;;;;;;;18.15;9.48;;;;;;;15.72;78.93;101498.63;7392209;19;20026;-56
2023/05/23 05:01:23;;;;;;;19.30;9.90;;;;;;;15.52;78.25;101503.78;7392863;19;20023;-55
2023/05/23 05:03:51;;;;;;;15.23;9.10;;;;;;;15.39;78.77;101507.59;7392641;19;20108;-57
2023/05/23 05:06:20;;;;;;;15.90;9.07;;;;;;;15.45;78.19;101523.09;7392360;19;20015;-55
2023/05/23 05:08:47;;;;;;;15.15;9.05;;;;;;;15.32;78.64;101525.94;7389746;19;20018;-55
2023/05/23 05:11:14;;;;;;;15.68;9.40;;;;;;;15.30;78.47;101520.72;7391133;19;20361;-55
2023/05/23 05:13:41;;;;;;;16.77;9.80;;;;;;;15.26;78.43;101524.63;7393246;19;20018;-56
2023/05/23 05:16:08;;;;;;;16.88;9.85;;;;;;;15.25;78.58;101532.72;7391484;19;20018;-56
2023/05/23 05:18:35;;;;;;;16.08;9.85;;;;;;;15.22;78.52;101538.31;7389841;19;20063;-56
2023/05/23 05:21:02;;;;;;;18.23;10.23;;;;;;;15.21;78.60;101534.78;7392220;19;20014;-53
2023/05/23 05:23:30;;;;;;;18.00;10.43;;;;;;;15.26;78.44;101542.41;7392389;19;20029;-56
2023/05/23 05:25:58;;;;;;;17.80;9.90;;;;;;;15.19;78.57;101546.59;7389833;19;20026;-56
2023/05/23 05:28:25;;;;;;;15.30;8.82;;;;;;;15.23;78.35;101545.38;7390889;19;20348;-55
2023/05/23 05:30:53;;;;;;;18.63;10.32;;;;;;;15.24;77.61;101547.91;7390319;19;20022;-56
2023/05/23 05:33:23;;;;;;;20.20;10.82;;;;;;;15.15;77.71;101542.44;7391617;19;20526;-56
2023/05/23 05:35:50;;;;;;;21.52;10.52;;;;;;;15.05;78.21;101556.53;7389701;19;20018;-55
2023/05/23 05:38:18;;;;;;;18.75;10.30;;;;;;;15.08;78.37;101558.13;7391045;19;20022;-56
2023/05/23 05:40:45;;;;;;;19.63;10.55;;;;;;;15.08;78.03;101560.78;7388881;19;20039;-54
2023/05/23 05:43:12;;;;;;;16.67;9.88;;;;;;;15.10;77.93;101574.81;7391493;19;20523;-55
2023/05/23 05:45:39;;;;;;;15.85;9.57;;;;;;;15.04;77.88;101572.66;7389440;19;20503;-57
2023/05/23 05:48:07;;;;;;;19.40;9.32;;;;;;;15.07;77.72;101564.41;7389940;19;20099;-56
2023/05/23 05:50:34;;;;;;;16.55;9.43;;;;;;;15.08;77.50;101571.44;7388139;19;20014;-56
2023/05/23 05:53:02;;;;;;;16.90;8.48;;;;;;;15.03;77.51;101581.63;7389488;19;20484;-55
2023/05/23 05:55:29;;;;;;;16.45;8.48;;;;;;;15.01;77.24;101580.91;7390120;19;20102;-53
2023/05/23 05:57:57;;;;;;;19.63;8.00;;;;;;;14.91;77.42;101599.44;7390911;19;20367;-55
2023/05/23 06:00:24;;;;;;;17.83;8.60;;;;;;;14.92;77.19;101582.50;7389293;19;20014;-55
2023/05/23 06:02:52;;;;;;;16.45;7.65;;;;;;;14.94;77.18;101593.88;7391071;19;20037;-54
2023/05/23 06:05:19;;;;;;;18.75;8.63;;;;;;;14.87;77.54;101608.66;7389289;19;20522;-55
2023/05/23 06:07:48;;;;;;;19.55;7.90;;;;;;;14.85;77.05;101595.44;7391141;19;20375;-57
2023/05/23 06:10:16;;;;;;;17.08;7.80;;;;;;;14.79;77.52;101605.75;7389045;19;20019;-57
2023/05/23 06:12:44;;;;;;;19.90;7.70;;;;;;;14.78;77.23;101612.91;7390806;19;20018;-57
2023/05/23 06:15:13;;;;;;;18.95;7.22;;;;;;;14.71;77.51;101610.81;7389912;19;20022;-56
2023/05/23 06:17:41;;;;;;;17.45;6.95;;;;;;;14.79;76.91;101617.25;7390609;19;20019;-56
2023/05/23 06:20:12;;;;;;;19.00;7.38;;;;;;;14.76;77.35;101621.97;7388973;19;20039;-56
2023/05/23 06:22:39;;;;;;;15.80;6.13;;;;;;;14.68;77.53;101624.38;7390788;19;20021;-54
2023/05/23 06:25:06;;;;;;;17.92;5.93;;;;;;;14.74;77.38;101629.25;7388794;19;20499;-55
2023/05/23 06:27:34;;;;;;;16.92;5.82;;;;;;;14.74;77.41;101631.91;7389372;19;20018;-55
2023/05/23 06:30:02;;;;;;;14.60;5.95;;;;;;;14.79;77.06;101624.41;7386596;19;20015;-53
2023/05/23 06:32:29;;;;;;;16.42;6.22;;;;;;;14.79;76.93;101643.06;7390587;19;20036;-53
2023/05/23 06:34:56;;;;;;;17.35;5.95;;;;;;;14.75;77.06;101647.78;7390125;19;20090;-54
2023/05/23 06:37:24;;;;;;;16.95;6.22;;;;;;;14.74;77.04;101647.91;7390328;19;20015;-56
2023/05/23 06:39:51;;;;;;;16.45;6.18;;;;;;;14.77;76.79;101653.03;7388740;19;20019;-55
2023/05/23 06:42:18;;;;;;;20.52;6.47;;;;;;;14.71;76.86;101653.47;7398286;19;20026;-55
2023/05/23 06:44:45;;;;;;;20.58;6.22;;;;;;;14.68;76.97;101661.72;7396160;19;20123;-56
2023/05/23 06:47:12;;;;;;;16.27;5.32;;;;;;;14.66;76.80;101656.50;7395850;19;20407;-56
2023/05/23 06:49:39;;;;;;;16.63;5.85;;;;;;;14.74;76.77;101669.25;7394882;19;20087;-56
2023/05/23 06:52:06;;;;;;;14.57;5.10;;;;;;;14.63;76.79;101665.59;7397820;19;20018;-56
2023/05/23 06:54:33;;;;;;;15.60;5.43;;;;;;;14.75;76.21;101662.94;7395515;19;20030;-54
2023/05/23 06:57:00;;;;;;;16.75;5.15;;;;;;;14.74;76.18;101670.09;7397132;19;20014;-55
2023/05/23 06:59:27;;;;;;;22.73;8.55;;;;;;;14.68;76.23;101683.88;7394678;19;20499;-55
2023/05/23 07:01:54;;;;;;;15.00;4.63;;;;;;;14.60;76.43;101679.13;7397680;19;20488;-54
2023/05/23 07:04:22;;;;;;;13.05;3.55;;;;;;;14.68;75.90;101673.22;7394524;19;20042;-56
2023/05/23 07:06:49;;;;;;;15.45;4.25;;;;;;;14.63;76.10;101686.06;7396803;19;20070;-56
2023/05/23 07:09:16;;;;;;;11.75;3.90;;;;;;;14.55;76.06;101689.31;7395275;19;20022;-56
2023/05/23 07:11:43;;;;;;;13.48;3.92;;;;;;;14.58;76.04;101690.91;7397266;19;20399;-56
2023/05/23 07:14:10;;;;;;;14.80;3.65;;;;;;;14.65;75.70;101699.25;7396608;19;20137;-55
2023/05/23 07:16:37;;;;;;;11.70;3.88;;;;;;;14.49;75.64;101700.41;7396015;19;20014;-56
2023/05/23 07:19:05;;;;;;;14.43;3.72;;;;;;;14.53;75.62;101704.56;7395289;19;20015;-55
2023/05/23 07:21:32;;;;;;;15.00;4.03;;;;;;;14.58;75.18;101707.75;7395268;19;20014;-55
2023/05/23 07:23:59;;;;;;;16.77;3.90;;;;;;;14.39;75.74;101715.38;7396028;19;20015;-55
2023/05/23 07:26:26;;;;;;;15.50;3.97;;;;;;;14.48;75.45;101708.50;7393315;19;20019;-56
2023/05/23 07:28:53;;;;;;;15.05;4.43;;;;;;;14.48;75.38;101712.03;7394588;19;20097;-56
2023/05/23 07:31:20;;;;;;;14.10;4.50;;;;;;;14.44;75.39;101720.38;7396075;19;20426;-55
2023/05/23 07:33:48;;;;;;;13.50;4.50;;;;;;;14.45;75.31;101727.38;7396486;19;20014;-56
2023/05/23 07:36:15;;;;;;;14.80;4.22;;;;;;;14.52;74.92;101736.66;7395694;19;20356;-56
2023/05/23 07:38:42;;;;;;;13.23;4.22;;;;;;;14.43;75.04;101748.00;7395053;19;20035;-56
2023/05/23 07:41:09;;;;;;;15.27;4.38;;;;;;;14.40;75.10;101738.41;7395892;19;20028;-55
2023/05/23 07:43:38;;;;;;;22.98;4.82;;;;;;;14.19;75.31;101743.47;7395362;19;20150;-56
2023/05/23 07:46:06;;;;;;;20.00;4.70;;;;;;;14.25;75.14;101756.38;7393293;19;20427;-56
2023/05/23 07:48:33;;;;;;;14.63;4.05;;;;;;;14.22;75.20;101758.41;7394527;19;20018;-55
2023/05/23 07:51:00;;;;;;;14.85;4.25;;;;;;;14.09;75.70;101763.78;7393381;19;20367;-55
2023/05/23 07:53:27;;;;;;;14.02;4.32;;;;;;;14.23;75.67;101762.75;7391689;19;20023;-56
2023/05/23 07:55:55;;;;;;;14.70;4.53;;;;;;;14.28;75.48;101772.13;7392666;19;20018;-54
2023/05/23 07:58:22;;;;;;;16.50;4.47;;;;;;;14.23;75.69;101782.28;7394018;19;20070;-55
2023/05/23 08:00:49;;;;;;;9.85;3.03;;;;;;;14.30;75.11;101780.00;7390397;19;20562;-54
2023/05/23 08:03:18;;;;;;;11.18;2.80;;;;;;;14.26;74.83;101778.53;7395275;19;20029;-54
2023/05/23 08:05:46;;;;;;;9.55;2.53;;;;;;;14.31;74.81;101795.91;7393026;19;20042;-53
2023/05/23 08:08:13;;;;;;;8.60;2.70;;;;;;;14.26;75.11;101794.50;7395495;19;20025;-56
2023/05/23 08:10:40;;;;;;;10.70;2.72;;;;;;;14.24;75.19;101794.63;7390737;19;20022;-56
2023/05/23 08:13:09;;;;;;;7.45;2.58;;;;;;;14.18;75.65;101807.53;7394960;19;20025;-56
2023/05/23 08:15:36;;;;;;;8.27;2.75;;;;;;;14.27;75.14;101814.84;7391982;19;20013;-56
2023/05/23 08:18:03;;;;;;;10.63;3.67;;;;;;;14.17;75.16;101804.03;7395038;19;20011;-56
2023/05/23 08:20:31;;;;;;;13.18;3.55;;;;;;;14.18;74.88;101815.53;7391675;19;20035;-56
2023/05/23 08:22:59;;;;;;;12.43;4.00;;;;;;;14.08;75.22;101818.88;7392839;19;20047;-55
2023/05/23 08:25:30;;;;;;;18.42;4.32;;;;;;;14.18;75.04;101826.19;7392848;19;20022;-57
2023/05/23 08:27:58;;;;;;;16.73;4.32;;;;;;;14.03;75.24;101831.63;7395297;19;20022;-56
2023/05/23 08:30:27;;;;;;;21.02;5.03;;;;;;;14.06;74.74;101833.25;7391223;19;20022;-57
2023/05/23 08:32:55;;;;;;;15.20;4.45;;;;;;;13.93;74.80;101837.72;7394200;19;20084;-57
2023/05/23 08:35:23;;;;;;;15.95;3.75;;;;;;;13.95;74.32;101855.31;7393019;19;20042;-56
2023/05/23 08:37:50;;;;;;;15.18;4.55;;;;;;;13.97;73.65;101844.56;7393710;19;20023;-54
2023/05/23 08:40:20;;;;;;;14.60;3.90;;;;;;;13.94;73.41;101844.78;7391342;19;20018;-53
2023/05/23 08:42:49;;;;;;;14.48;3.97;;;;;;;13.94;73.46;101860.75;7393355;19;20026;-50
2023/05/23 08:45:17;;;;;;;15.07;4.03;;;;;;;13.98;72.87;101859.56;7391944;19;20018;-53
2023/05/23 08:47:45;;;;;;;14.15;3.70;;;;;;;14.05;73.16;101866.19;7394096;19;20022;-51
2023/05/23 08:50:17;;;;;;;15.75;3.72;;;;;;;14.10;73.14;101864.03;7391278;19;20011;-55
2023/05/23 08:52:55;;;;;;;14.63;4.35;;;;;;;14.02;73.06;101864.56;7392845;19;20097;-53
2023/05/23 08:55:27;;;;;;;16.60;4.63;;;;;;;13.93;73.22;101867.88;7392533;19;20022;-56
2023/05/23 08:57:58;;;;;;;19.58;4.57;;;;;;;13.93;72.73;101881.19;7389580;19;20021;-52
2023/05/23 09:00:26;;;;;;;16.48;4.18;;;;;;;13.98;72.48;101887.06;7390072;19;20022;-53
2023/05/23 09:02:54;;;;;;;17.85;4.68;;;;;;;14.01;71.91;101884.19;7388035;19;20074;-51
2023/05/23 09:05:21;;;;;;;17.70;4.43;;;;;;;14.09;71.73;101878.31;7389102;19;20011;-50
2023/05/23 09:07:53;;;;;;;16.95;4.93;;;;;;;13.97;71.83;101885.34;7392424;19;20018;-51
2023/05/23 09:10:21;;;;;;;17.95;4.72;;;;;;;13.92;72.08;101891.94;7390027;19;20492;-52
2023/05/23 09:12:48;;;;;;;15.13;4.57;;;;;;;13.86;71.90;101895.91;7392422;19;20022;-49
2023/05/23 09:15:15;;;;;;;19.17;4.43;;;;;;;13.96;71.59;101901.41;7390669;19;20021;-49
2023/05/23 09:17:44;;;;;;;13.98;4.28;;;;;;;13.96;71.12;101902.28;7392375;19;20019;-49
2023/05/23 09:20:13;;;;;;;16.42;4.72;;;;;;;14.07;70.70;101904.19;7390209;19;20356;-49
2023/05/23 09:22:47;;;;;;;15.15;4.40;;;;;;;14.04;70.29;101923.03;7391785;19;20031;-51
2023/05/23 09:25:15;;;;;;;19.55;4.72;;;;;;;13.96;70.31;101906.75;7391220;19;20011;-53
2023/05/23 09:27:42;;;;;;;14.88;4.53;;;;;;;13.99;69.97;101918.03;7391429;19;20014;-49
2023/05/23 09:30:14;;;;;;;18.90;4.70;;;;;;;14.16;69.72;101927.53;7389263;19;20030;-48
2023/05/23 09:32:43;;;;;;;14.88;4.25;;;;;;;14.15;69.89;101936.47;7391683;19;20423;-48
2023/05/23 09:35:12;;;;;;;15.98;3.67;;;;;;;14.05;69.31;101938.94;7390798;19;20011;-50
2023/05/23 09:37:45;;;;;;;15.50;4.22;;;;;;;14.08;68.76;101941.41;7391109;19;20014;-52
2023/05/23 09:40:14;;;;;;;17.77;4.38;;;;;;;14.17;67.89;101942.56;7389317;19;20082;-52
2023/05/23 09:42:46;;;;;;;15.95;3.55;;;;;;;14.24;67.13;101935.00;7390907;19;20015;-50
2023/05/23 09:45:15;;;;;;;17.75;4.30;;;;;;;14.18;65.85;101935.41;7388853;19;20014;-52
2023/05/23 09:47:51;;;;;;;21.67;4.40;;;;;;;14.14;64.72;101942.75;7391126;19;20093;-53
2023/05/23 09:50:19;;;;;;;17.83;3.70;;;;;;;14.24;64.39;101937.66;7388974;19;20046;-53
2023/05/23 09:52:47;;;;;;;19.73;4.20;;;;;;;14.30;63.74;101943.38;7389104;19;20385;-52
2023/05/23 09:55:14;;;;;;;14.65;4.15;;;;;;;14.37;63.01;101955.31;7390303;19;20025;-51
2023/05/23 09:57:42;;;;;;;19.52;4.18;;;;;;;14.35;62.03;101940.44;7391028;19;20019;-53
2023/05/23 10:00:12;;;;;;;15.55;3.92;;;;;;;14.23;62.61;101952.81;7390980;19;20015;-52
2023/05/23 10:03:01;;;;;;;17.13;4.15;;;;;;;14.42;62.21;101956.81;7391145;19;20021;-54
2023/05/23 10:05:36;;;;;;;20.33;4.47;;;;;;;14.45;61.87;101960.13;7390406;19;20038;-51
2023/05/23 10:08:12;;;;;;;19.90;4.05;;;;;;;14.65;60.53;101963.22;7390921;19;20014;-50
2023/05/23 10:11:15;;;;;;;16.88;4.47;;;;;;;14.79;59.29;101957.75;7387975;19;20025;-52
2023/05/23 10:13:44;;;;;;;15.32;4.25;;;;;;;14.97;59.49;101955.56;7388830;19;20035;-51
2023/05/23 10:16:22;;;;;;;17.52;3.90;;;;;;;14.96;58.77;101960.06;7388152;19;20477;-52
2023/05/23 10:18:58;;;;;;;14.68;3.95;;;;;;;14.93;58.88;101972.75;7389558;19;20018;-52
2023/05/23 10:21:48;;;;;;;23.52;4.32;;;;;;;14.80;58.76;101959.44;7390667;19;20022;-51
2023/05/23 10:24:16;;;;;;;21.42;4.68;;;;;;;14.89;59.54;101980.13;7389459;19;20585;-49
2023/05/23 10:26:44;;;;;;;16.80;4.30;;;;;;;14.91;58.91;101980.00;7387820;19;20023;-52
2023/05/23 10:29:11;;;;;;;17.00;4.18;;;;;;;14.75;59.48;101991.78;7388371;19;20037;-52
2023/05/23 10:31:39;;;;;;;15.27;3.80;;;;;;;14.80;58.90;101984.28;7389624;19;20033;-52
2023/05/23 10:34:20;;;;;;;15.18;3.70;;;;;;;15.00;58.06;101982.03;7390218;19;20364;-50
2023/05/23 10:36:59;;;;;;;18.13;3.83;;;;;;;14.95;58.07;101973.47;7388825;19;20491;-48
2023/05/23 10:39:45;;;;;;;17.10;3.92;;;;;;;15.03;57.82;101979.09;7388564;19;20023;-50
2023/05/23 10:42:20;;;;;;;13.18;3.35;;;;;;;15.21;57.34;101979.59;7389517;19;20022;-56
2023/05/23 10:44:47;;;;;;;12.73;3.55;;;;;;;15.48;56.20;101976.69;7388645;19;20014;-57
2023/05/23 10:47:26;;;;;;;13.85;3.45;;;;;;;15.50;55.20;101986.28;7387131;19;20022;-54
2023/05/23 10:49:54;;;;;;;14.93;3.80;;;;;;;15.64;55.34;101993.25;7386091;19;20022;-51
2023/05/23 10:52:25;;;;;;;15.82;3.78;;;;;;;15.66;55.43;101986.03;7387174;19;20487;-51
2023/05/23 10:54:54;;;;;;;13.40;4.15;;;;;;;15.60;55.73;101989.94;7388797;19;20022;-53
2023/05/23 10:57:28;;;;;;;19.33;4.18;;;;;;;15.61;55.09;101985.50;7389091;19;20019;-54
2023/05/23 10:59:55;;;;;;;;;;;;;;;15.60;54.15;101981.94;7387735;19;20023;-53
2023/05/23 11:02:26;;;;;;;14.00;4.10;;;;;;;15.63;54.85;101991.56;7388822;19;20313;-52
2023/05/23 11:05:30;;;;;;;16.55;4.00;;;;;;;15.51;54.32;101992.47;7388968;19;20014;-49
2023/05/23 11:08:13;;;;;;;17.42;4.63;;;;;;;15.38;55.53;102005.91;7388869;19;20014;-53
2023/05/23 11:11:00;;;;;;;17.65;4.75;;;;;;;15.41;55.46;101986.97;7384292;19;20006;-50
2023/05/23 11:13:52;;;;;;;19.63;4.45;;;;;;;15.42;54.98;101996.69;7388538;19;20018;-54
2023/05/23 11:16:40;;;;;;;18.38;4.15;;;;;;;15.53;54.36;102006.53;7388134;19;20022;-54
2023/05/23 11:19:33;;;;;;;16.58;4.43;;;;;;;15.56;53.86;102003.66;7387191;19;20061;-54
2023/05/23 11:22:02;;;;;;;18.30;4.33;;;;;;;15.47;54.78;102029.22;7388071;19;20015;-53
2023/05/23 11:24:50;;;;;;;19.92;4.80;;;;;;;15.52;54.04;102012.88;7387594;19;20018;-50
2023/05/23 11:27:28;;;;;;;19.13;4.47;;;;;;;15.55;54.07;102016.16;7391918;19;20018;-49